createdAt,value
2016-05-21T00:00:15.811Z,1010.49
2016-05-21T00:01:15.844Z,1010.49
2016-05-21T00:02:15.909Z,1010.45
2016-05-21T00:03:15.959Z,1010.47
2016-05-21T00:04:16.008Z,1010.44
2016-05-21T00:05:16.058Z,1010.44
2016-05-21T00:06:16.107Z,1010.44
2016-05-21T00:07:16.158Z,1010.5
2016-05-21T00:08:16.207Z,1010.47
2016-05-21T00:09:16.256Z,1010.49
2016-05-21T00:10:16.305Z,1010.43
2016-05-21T00:11:16.398Z,1010.46
2016-05-21T00:12:16.433Z,1010.43
2016-05-21T00:13:16.514Z,1010.45
2016-05-21T00:14:16.578Z,1010.46
2016-05-21T00:15:16.629Z,1010.41
2016-05-21T00:16:16.702Z,1010.43
2016-05-21T00:17:16.757Z,1010.4
2016-05-21T00:18:16.813Z,1010.38
2016-05-21T00:19:16.868Z,1010.4
2016-05-21T00:20:16.923Z,1010.36
2016-05-21T00:21:16.976Z,1010.37
2016-05-21T00:22:17.028Z,1010.39
2016-05-21T00:23:17.079Z,1010.4
2016-05-21T00:24:17.132Z,1010.39
2016-05-21T00:25:17.183Z,1010.35
2016-05-21T00:26:17.234Z,1010.36
2016-05-21T00:27:17.285Z,1010.36
2016-05-21T00:28:17.335Z,1010.33
2016-05-21T00:29:17.447Z,1010.35
2016-05-21T00:30:17.450Z,1010.37
2016-05-21T00:31:17.501Z,1010.3
2016-05-21T00:32:17.551Z,1010.34
2016-05-21T00:33:17.600Z,1010.3
2016-05-21T00:34:17.634Z,1010.31
2016-05-21T00:35:17.699Z,1010.33
2016-05-21T00:36:17.748Z,1010.3
2016-05-21T00:37:17.783Z,1010.26
2016-05-21T00:38:17.848Z,1010.32
2016-05-21T00:39:17.897Z,1010.29
2016-05-21T00:40:17.947Z,1010.27
2016-05-21T00:41:17.997Z,1010.26
2016-05-21T00:42:18.046Z,1010.26
2016-05-21T00:43:18.111Z,1010.25
2016-05-21T00:44:18.160Z,1010.28
2016-05-21T00:45:18.195Z,1010.26
2016-05-21T00:46:18.245Z,1010.25
2016-05-21T00:47:18.310Z,1010.23
2016-05-21T00:48:18.344Z,1010.24
2016-05-21T00:49:18.408Z,1010.25
2016-05-21T00:50:18.458Z,1010.26
2016-05-21T00:51:18.508Z,1010.24
2016-05-21T00:52:18.557Z,1010.24
2016-05-21T00:53:18.607Z,1010.23
2016-05-21T00:54:18.656Z,1010.22
2016-05-21T00:55:18.706Z,1010.2
2016-05-21T00:56:19.021Z,1010.19
2016-05-21T00:57:18.804Z,1010.21
2016-05-21T00:58:18.854Z,1010.19
2016-05-21T00:59:18.904Z,1010.2
2016-05-21T01:00:18.954Z,1010.15
2016-05-21T01:01:19.004Z,1010.17
2016-05-21T01:02:19.068Z,1010.15
2016-05-21T01:03:19.118Z,1010.16
2016-05-21T01:04:19.168Z,1010.14
2016-05-21T01:05:19.201Z,1010.15
2016-05-21T01:06:19.267Z,1010.16
2016-05-21T01:07:19.317Z,1010.14
2016-05-21T01:08:19.366Z,1010.12
2016-05-21T01:09:19.431Z,1010.1
2016-05-21T01:10:19.464Z,1010.11
2016-05-21T01:11:19.514Z,1010.11
2016-05-21T01:12:19.564Z,1010.09
2016-05-21T01:13:19.629Z,1010.08
2016-05-21T01:14:19.664Z,1010.12
2016-05-21T01:15:19.713Z,1010.16
2016-05-21T01:16:19.763Z,1010.13
2016-05-21T01:17:19.812Z,1010.11
2016-05-21T01:18:19.861Z,1010.14
2016-05-21T01:19:19.911Z,1010.13
2016-05-21T01:20:19.977Z,1010.09
2016-05-21T01:21:20.026Z,1010.13
2016-05-21T01:22:20.075Z,1010.11
2016-05-21T01:23:20.125Z,1010.14
2016-05-21T01:24:20.190Z,1010.09
2016-05-21T01:25:20.224Z,1010.18
2016-05-21T01:26:20.273Z,1010.13
2016-05-21T01:27:20.323Z,1010.12
2016-05-21T01:28:20.373Z,1010.15
2016-05-21T01:29:20.438Z,1010.13
2016-05-21T01:30:20.472Z,1010.16
2016-05-21T01:31:20.521Z,1010.12
2016-05-21T01:32:20.571Z,1010.13
2016-05-21T01:33:20.621Z,1010.1
2016-05-21T01:34:20.670Z,1010.07
2016-05-21T01:35:20.735Z,1010.11
2016-05-21T01:36:20.785Z,1010.1
2016-05-21T01:37:20.819Z,1010.09
2016-05-21T01:38:20.900Z,1010.11
2016-05-21T01:39:20.934Z,1010.09
2016-05-21T01:40:20.983Z,1010.09
2016-05-21T01:41:21.033Z,1010.12
2016-05-21T01:42:21.083Z,1010.05
2016-05-21T01:43:21.132Z,1010.1
2016-05-21T01:44:21.182Z,1010.1
2016-05-21T01:45:21.231Z,1010.09
2016-05-21T01:46:21.281Z,1010.09
2016-05-21T01:47:21.330Z,1010.11
2016-05-21T01:48:21.380Z,1010.12
2016-05-21T01:49:21.445Z,1010.08
2016-05-21T01:50:21.494Z,1010.14
2016-05-21T01:51:21.544Z,1010.12
2016-05-21T01:52:21.593Z,1010.1
2016-05-21T01:53:21.643Z,1010.13
2016-05-21T01:54:21.693Z,1010.12
2016-05-21T01:55:21.743Z,1010.11
2016-05-21T01:56:21.792Z,1010.17
2016-05-21T01:57:21.841Z,1010.11
2016-05-21T01:58:21.891Z,1010.09
2016-05-21T01:59:21.941Z,1010.12
2016-05-21T02:00:21.990Z,1010.08
2016-05-21T02:01:22.040Z,1010.06
2016-05-21T02:02:22.089Z,1010.13
2016-05-21T02:03:22.154Z,1010.13
2016-05-21T02:04:22.204Z,1010.14
2016-05-21T02:05:22.237Z,1010.18
2016-05-21T02:06:22.303Z,1010.14
2016-05-21T02:07:22.353Z,1010.16
2016-05-21T02:08:22.402Z,1010.17
2016-05-21T02:09:22.436Z,1010.15
2016-05-21T02:10:22.501Z,1010.17
2016-05-21T02:11:22.551Z,1010.17
2016-05-21T02:12:22.601Z,1010.16
2016-05-21T02:13:22.650Z,1010.12
2016-05-21T02:14:22.700Z,1010.16
2016-05-21T02:15:22.750Z,1010.16
2016-05-21T02:16:22.799Z,1010.18
2016-05-21T02:17:22.848Z,1010.17
2016-05-21T02:18:22.897Z,1010.15
2016-05-21T02:19:22.947Z,1010.13
2016-05-21T02:20:22.997Z,1010.12
2016-05-21T02:21:23.047Z,1010.12
2016-05-21T02:22:23.111Z,1010.15
2016-05-21T02:23:23.146Z,1010.11
2016-05-21T02:24:23.211Z,1010.06
2016-05-21T02:25:23.261Z,1010.08
2016-05-21T02:26:23.310Z,1010.1
2016-05-21T02:27:23.359Z,1010.07
2016-05-21T02:28:23.410Z,1010.12
2016-05-21T02:29:23.474Z,1010.08
2016-05-21T02:30:23.524Z,1010.15
2016-05-21T02:31:23.558Z,1010.08
2016-05-21T02:32:23.607Z,1010.03
2016-05-21T02:33:23.657Z,1010.03
2016-05-21T02:34:23.706Z,1010.07
2016-05-21T02:35:23.757Z,1010
2016-05-21T02:36:23.805Z,1010.03
2016-05-21T02:37:23.871Z,1010.01
2016-05-21T02:38:23.905Z,1010
2016-05-21T02:39:23.954Z,1009.99
2016-05-21T02:40:24.020Z,1010.03
2016-05-21T02:41:24.084Z,1010.04
2016-05-21T02:42:24.119Z,1010
2016-05-21T02:43:24.168Z,1010.01
2016-05-21T02:44:24.217Z,1010
2016-05-21T02:45:24.267Z,1009.99
2016-05-21T02:46:24.316Z,1009.99
2016-05-21T02:47:24.366Z,1009.93
2016-05-21T02:48:24.416Z,1009.96
2016-05-21T02:49:24.466Z,1009.97
2016-05-21T02:50:24.531Z,1009.99
2016-05-21T02:51:24.611Z,1009.94
2016-05-21T02:52:24.614Z,1009.94
2016-05-21T02:53:24.664Z,1009.93
2016-05-21T02:54:24.713Z,1009.94
2016-05-21T02:55:24.779Z,1009.94
2016-05-21T02:56:24.828Z,1009.9
2016-05-21T02:57:24.862Z,1009.96
2016-05-21T02:58:24.927Z,1009.94
2016-05-21T02:59:24.977Z,1009.94
2016-05-21T03:00:25.027Z,1009.91
2016-05-21T03:01:25.076Z,1009.91
2016-05-21T03:02:25.125Z,1009.92
2016-05-21T03:03:25.176Z,1009.92
2016-05-21T03:04:25.224Z,1009.93
2016-05-21T03:05:25.274Z,1009.92
2016-05-21T03:06:25.339Z,1009.87
2016-05-21T03:07:25.373Z,1009.86
2016-05-21T03:08:25.423Z,1009.91
2016-05-21T03:09:25.488Z,1009.91
2016-05-21T03:10:25.537Z,1009.92
2016-05-21T03:11:25.587Z,1009.92
2016-05-21T03:12:25.621Z,1009.91
2016-05-21T03:13:25.686Z,1009.92
2016-05-21T03:14:25.736Z,1009.87
2016-05-21T03:15:25.786Z,1009.93
2016-05-21T03:16:25.819Z,1009.89
2016-05-21T03:17:25.884Z,1009.9
2016-05-21T03:18:25.934Z,1009.89
2016-05-21T03:19:25.983Z,1009.89
2016-05-21T03:20:26.034Z,1009.88
2016-05-21T03:21:26.083Z,1009.91
2016-05-21T03:22:26.133Z,1009.91
2016-05-21T03:23:26.183Z,1009.92
2016-05-21T03:24:26.232Z,1009.89
2016-05-21T03:25:26.281Z,1009.9
2016-05-21T03:26:26.330Z,1009.92
2016-05-21T03:27:26.381Z,1009.96
2016-05-21T03:28:26.446Z,1009.97
2016-05-21T03:29:26.495Z,1009.97
2016-05-21T03:30:26.544Z,1009.95
2016-05-21T03:31:26.594Z,1009.97
2016-05-21T03:32:26.643Z,1009.97
2016-05-21T03:33:26.693Z,1010.02
2016-05-21T03:34:26.743Z,1009.97
2016-05-21T03:35:26.793Z,1010.01
2016-05-21T03:36:26.842Z,1010.01
2016-05-21T03:37:26.892Z,1009.96
2016-05-21T03:38:26.941Z,1009.97
2016-05-21T03:39:26.990Z,1009.96
2016-05-21T03:40:27.040Z,1009.95
2016-05-21T03:41:27.090Z,1009.99
2016-05-21T03:42:27.139Z,1010
2016-05-21T03:43:27.189Z,1009.98
2016-05-21T03:44:27.254Z,1009.98
2016-05-21T03:45:27.288Z,1009.99
2016-05-21T03:46:27.353Z,1009.95
2016-05-21T03:47:27.387Z,1009.97
2016-05-21T03:48:27.453Z,1009.97
2016-05-21T03:49:27.517Z,1009.98
2016-05-21T03:50:27.552Z,1009.92
2016-05-21T03:51:27.601Z,1009.92
2016-05-21T03:52:27.650Z,1009.95
2016-05-21T03:53:27.700Z,1009.98
2016-05-21T03:54:27.750Z,1010.02
2016-05-21T03:55:27.799Z,1009.98
2016-05-21T03:56:27.864Z,1010.02
2016-05-21T03:57:27.899Z,1010.04
2016-05-21T03:58:27.949Z,1010.08
2016-05-21T03:59:28.013Z,1010.12
2016-05-21T04:00:28.047Z,1010.11
2016-05-21T04:01:28.096Z,1010.1
2016-05-21T04:02:28.162Z,1010.09
2016-05-21T04:03:28.196Z,1010.1
2016-05-21T04:04:28.246Z,1010.1
2016-05-21T04:05:28.295Z,1010.09
2016-05-21T04:06:28.360Z,1010.09
2016-05-21T04:07:28.410Z,1010.06
2016-05-21T04:08:28.459Z,1010.09
2016-05-21T04:09:28.509Z,1010.05
2016-05-21T04:10:28.559Z,1010.03
2016-05-21T04:11:28.654Z,1010.01
2016-05-21T04:12:28.657Z,1010.01
2016-05-21T04:13:28.707Z,1010.03
2016-05-21T04:14:28.757Z,1010
2016-05-21T04:15:28.807Z,1010
2016-05-21T04:16:28.856Z,1009.94
2016-05-21T04:17:28.906Z,1009.97
2016-05-21T04:18:28.970Z,1009.93
2016-05-21T04:19:29.020Z,1009.95
2016-05-21T04:20:29.054Z,1009.94
2016-05-21T04:21:29.120Z,1009.94
2016-05-21T04:22:29.169Z,1009.92
2016-05-21T04:23:29.219Z,1009.9
2016-05-21T04:24:29.268Z,1009.92
2016-05-21T04:25:29.318Z,1009.9
2016-05-21T04:26:29.585Z,1009.93
2016-05-21T04:27:29.416Z,1009.9
2016-05-21T04:28:29.466Z,1009.9
2016-05-21T04:29:29.516Z,1009.88
2016-05-21T04:30:29.566Z,1009.87
2016-05-21T04:31:29.615Z,1009.86
2016-05-21T04:32:29.665Z,1009.86
2016-05-21T04:33:29.713Z,1009.85
2016-05-21T04:34:29.779Z,1009.85
2016-05-21T04:35:29.829Z,1009.81
2016-05-21T04:36:29.878Z,1009.8
2016-05-21T04:37:29.929Z,1009.77
2016-05-21T04:38:29.962Z,1009.76
2016-05-21T04:39:30.027Z,1009.76
2016-05-21T04:40:30.062Z,1009.72
2016-05-21T04:41:30.517Z,1009.75
2016-05-21T04:42:30.160Z,1009.76
2016-05-21T04:43:30.225Z,1009.78
2016-05-21T04:44:30.275Z,1009.82
2016-05-21T04:45:30.325Z,1009.84
2016-05-21T04:46:30.421Z,1009.8
2016-05-21T04:47:30.423Z,1009.79
2016-05-21T04:48:30.473Z,1009.8
2016-05-21T04:49:30.523Z,1009.79
2016-05-21T04:50:30.573Z,1009.78
2016-05-21T04:51:30.622Z,1009.8
2016-05-21T04:52:30.672Z,1009.78
2016-05-21T04:53:30.736Z,1009.79
2016-05-21T04:54:30.770Z,1009.81
2016-05-21T04:55:30.836Z,1009.75
2016-05-21T04:56:30.870Z,1009.75
2016-05-21T04:57:30.935Z,1009.76
2016-05-21T04:58:30.984Z,1009.71
2016-05-21T04:59:31.019Z,1009.67
2016-05-21T05:00:31.068Z,1009.73
2016-05-21T05:01:31.133Z,1009.75
2016-05-21T05:02:31.182Z,1009.73
2016-05-21T05:03:31.232Z,1009.72
2016-05-21T05:04:31.282Z,1009.73
2016-05-21T05:05:31.332Z,1009.7
2016-05-21T05:06:31.381Z,1009.69
2016-05-21T05:07:31.430Z,1009.71
2016-05-21T05:08:31.479Z,1009.72
2016-05-21T05:09:31.530Z,1009.69
2016-05-21T05:10:31.579Z,1009.72
2016-05-21T05:11:31.629Z,1009.7
2016-05-21T05:12:31.694Z,1009.7
2016-05-21T05:13:31.743Z,1009.71
2016-05-21T05:14:31.778Z,1009.71
2016-05-21T05:15:31.843Z,1009.71
2016-05-21T05:16:31.893Z,1009.7
2016-05-21T05:17:31.942Z,1009.7
2016-05-21T05:18:31.992Z,1009.72
2016-05-21T05:19:32.041Z,1009.69
2016-05-21T05:20:32.090Z,1009.69
2016-05-21T05:21:32.140Z,1009.67
2016-05-21T05:22:32.189Z,1009.66
2016-05-21T05:23:32.239Z,1009.64
2016-05-21T05:24:32.289Z,1009.68
2016-05-21T05:25:32.338Z,1009.67
2016-05-21T05:26:32.388Z,1009.68
2016-05-21T05:27:32.438Z,1009.7
2016-05-21T05:28:32.486Z,1009.73
2016-05-21T05:29:32.537Z,1009.69
2016-05-21T05:30:32.602Z,1009.69
2016-05-21T05:31:32.635Z,1009.66
2016-05-21T05:32:32.685Z,1009.71
2016-05-21T05:33:32.735Z,1009.68
2016-05-21T05:34:32.800Z,1009.66
2016-05-21T05:35:32.834Z,1009.65
2016-05-21T05:36:32.900Z,1009.65
2016-05-21T05:37:32.948Z,1009.61
2016-05-21T05:38:32.998Z,1009.65
2016-05-21T05:39:33.048Z,1009.61
2016-05-21T05:40:33.098Z,1009.67
2016-05-21T05:41:33.146Z,1009.66
2016-05-21T05:42:33.196Z,1009.67
2016-05-21T05:43:33.246Z,1009.69
2016-05-21T05:44:33.296Z,1009.67
2016-05-21T05:45:33.345Z,1009.65
2016-05-21T05:46:33.395Z,1009.66
2016-05-21T05:47:33.444Z,1009.65
2016-05-21T05:48:33.494Z,1009.67
2016-05-21T05:49:33.543Z,1009.66
2016-05-21T05:50:33.593Z,1009.6
2016-05-21T05:51:33.658Z,1009.6
2016-05-21T05:52:33.708Z,1009.68
2016-05-21T05:53:33.742Z,1009.66
2016-05-21T05:54:33.806Z,1009.67
2016-05-21T05:55:33.856Z,1009.72
2016-05-21T05:56:34.109Z,1009.67
2016-05-21T05:57:33.956Z,1009.62
2016-05-21T05:58:33.989Z,1009.64
2016-05-21T05:59:34.055Z,1009.7
2016-05-21T06:00:34.104Z,1009.65
2016-05-21T06:01:34.154Z,1009.68
2016-05-21T06:02:34.203Z,1009.64
2016-05-21T06:03:34.253Z,1009.69
2016-05-21T06:04:34.303Z,1009.67
2016-05-21T06:05:34.352Z,1009.7
2016-05-21T06:06:34.418Z,1009.73
2016-05-21T06:07:34.451Z,1009.69
2016-05-21T06:08:34.501Z,1009.74
2016-05-21T06:09:34.566Z,1009.72
2016-05-21T06:10:34.600Z,1009.72
2016-05-21T06:11:34.649Z,1009.75
2016-05-21T06:12:34.699Z,1009.73
2016-05-21T06:13:34.765Z,1009.76
2016-05-21T06:14:34.814Z,1009.73
2016-05-21T06:15:34.848Z,1009.73
2016-05-21T06:16:34.913Z,1009.69
2016-05-21T06:17:34.962Z,1009.76
2016-05-21T06:18:35.012Z,1009.73
2016-05-21T06:19:35.062Z,1009.75
2016-05-21T06:20:35.111Z,1009.78
2016-05-21T06:21:35.161Z,1009.83
2016-05-21T06:22:35.211Z,1009.84
2016-05-21T06:23:35.260Z,1009.84
2016-05-21T06:24:35.309Z,1009.81
2016-05-21T06:25:35.359Z,1009.84
2016-05-21T06:26:35.425Z,1009.85
2016-05-21T06:27:35.458Z,1009.84
2016-05-21T06:28:35.508Z,1009.81
2016-05-21T06:29:35.573Z,1009.79
2016-05-21T06:30:35.622Z,1009.78
2016-05-21T06:31:35.656Z,1009.85
2016-05-21T06:32:35.721Z,1009.84
2016-05-21T06:33:35.771Z,1009.85
2016-05-21T06:34:35.805Z,1009.87
2016-05-21T06:35:35.871Z,1009.82
2016-05-21T06:36:35.905Z,1009.78
2016-05-21T06:37:35.969Z,1009.77
2016-05-21T06:38:36.019Z,1009.78
2016-05-21T06:39:36.069Z,1009.78
2016-05-21T06:40:36.119Z,1009.72
2016-05-21T06:41:36.167Z,1009.72
2016-05-21T06:42:36.218Z,1009.74
2016-05-21T06:43:36.267Z,1009.71
2016-05-21T06:44:36.332Z,1009.74
2016-05-21T06:45:36.365Z,1009.78
2016-05-21T06:46:36.415Z,1009.8
2016-05-21T06:47:36.481Z,1009.78
2016-05-21T06:48:36.515Z,1009.83
2016-05-21T06:49:36.565Z,1009.8
2016-05-21T06:50:36.629Z,1009.82
2016-05-21T06:51:36.679Z,1009.82
2016-05-21T06:52:36.728Z,1009.85
2016-05-21T06:53:36.778Z,1009.79
2016-05-21T06:54:36.828Z,1009.78
2016-05-21T06:55:36.878Z,1009.78
2016-05-21T06:56:36.927Z,1009.83
2016-05-21T06:57:36.976Z,1009.78
2016-05-21T06:58:37.026Z,1009.75
2016-05-21T06:59:37.075Z,1009.75
2016-05-21T07:00:37.125Z,1009.74
2016-05-21T07:01:37.175Z,1009.71
2016-05-21T07:02:37.224Z,1009.74
2016-05-21T07:03:37.274Z,1009.75
2016-05-21T07:04:37.324Z,1009.69
2016-05-21T07:05:37.373Z,1009.68
2016-05-21T07:06:37.438Z,1009.72
2016-05-21T07:07:37.488Z,1009.66
2016-05-21T07:08:37.538Z,1009.65
2016-05-21T07:09:37.587Z,1009.62
2016-05-21T07:10:37.635Z,1009.6
2016-05-21T07:11:37.686Z,1009.63
2016-05-21T07:12:37.735Z,1009.63
2016-05-21T07:13:37.785Z,1009.67
2016-05-21T07:14:37.835Z,1009.67
2016-05-21T07:15:37.884Z,1009.65
2016-05-21T07:16:37.934Z,1009.7
2016-05-21T07:17:37.984Z,1009.67
2016-05-21T07:18:38.033Z,1009.68
2016-05-21T07:19:38.098Z,1009.73
2016-05-21T07:20:38.132Z,1009.78
2016-05-21T07:21:38.213Z,1009.76
2016-05-21T07:22:38.231Z,1009.77
2016-05-21T07:23:38.281Z,1009.75
2016-05-21T07:24:38.330Z,1009.74
2016-05-21T07:25:38.396Z,1009.71
2016-05-21T07:26:38.445Z,1009.74
2016-05-21T07:27:38.478Z,1009.79
2016-05-21T07:28:38.545Z,1009.76
2016-05-21T07:29:38.594Z,1009.79
2016-05-21T07:30:38.644Z,1009.76
2016-05-21T07:31:38.693Z,1009.78
2016-05-21T07:32:38.742Z,1009.71
2016-05-21T07:33:38.792Z,1009.69
2016-05-21T07:34:38.841Z,1009.75
2016-05-21T07:35:38.891Z,1009.73
2016-05-21T07:36:38.941Z,1009.77
2016-05-21T07:37:38.990Z,1009.73
2016-05-21T07:38:39.040Z,1009.71
2016-05-21T07:39:39.105Z,1009.73
2016-05-21T07:40:39.155Z,1009.69
2016-05-21T07:41:39.219Z,1009.65
2016-05-21T07:42:39.254Z,1009.65
2016-05-21T07:43:39.304Z,1009.63
2016-05-21T07:44:39.352Z,1009.64
2016-05-21T07:45:39.402Z,1009.67
2016-05-21T07:46:39.452Z,1009.61
2016-05-21T07:47:39.502Z,1009.59
2016-05-21T07:48:39.551Z,1009.64
2016-05-21T07:49:39.601Z,1009.62
2016-05-21T07:50:39.651Z,1009.62
2016-05-21T07:51:39.700Z,1009.62
2016-05-21T07:52:39.748Z,1009.71
2016-05-21T07:53:39.799Z,1009.64
2016-05-21T07:54:39.848Z,1009.69
2016-05-21T07:55:39.914Z,1009.65
2016-05-21T07:56:40.339Z,1009.74
2016-05-21T07:57:40.012Z,1009.68
2016-05-21T07:58:40.062Z,1009.64
2016-05-21T07:59:40.112Z,1009.61
2016-05-21T08:00:40.146Z,1009.62
2016-05-21T08:01:40.211Z,1009.59
2016-05-21T08:02:40.261Z,1009.55
2016-05-21T08:03:40.310Z,1009.55
2016-05-21T08:04:40.360Z,1009.59
2016-05-21T08:05:40.409Z,1009.56
2016-05-21T08:06:40.459Z,1009.56
2016-05-21T08:07:40.508Z,1009.63
2016-05-21T08:08:40.558Z,1009.62
2016-05-21T08:09:40.608Z,1009.65
2016-05-21T08:10:40.672Z,1009.65
2016-05-21T08:11:40.707Z,1009.72
2016-05-21T08:12:40.757Z,1009.66
2016-05-21T08:13:40.821Z,1009.65
2016-05-21T08:14:40.872Z,1009.62
2016-05-21T08:15:40.920Z,1009.63
2016-05-21T08:16:40.971Z,1009.68
2016-05-21T08:17:41.020Z,1009.61
2016-05-21T08:18:41.069Z,1009.68
2016-05-21T08:19:41.119Z,1009.66
2016-05-21T08:20:41.168Z,1009.57
2016-05-21T08:21:41.218Z,1009.6
2016-05-21T08:22:41.268Z,1009.57
2016-05-21T08:23:41.317Z,1009.53
2016-05-21T08:24:41.382Z,1009.56
2016-05-21T08:25:41.417Z,1009.65
2016-05-21T08:26:41.481Z,1009.58
2016-05-21T08:27:41.531Z,1009.58
2016-05-21T08:28:41.581Z,1009.59
2016-05-21T08:29:41.631Z,1009.61
2016-05-21T08:30:41.680Z,1009.62
2016-05-21T08:31:41.729Z,1009.62
2016-05-21T08:32:41.778Z,1009.55
2016-05-21T08:33:41.828Z,1009.57
2016-05-21T08:34:41.878Z,1009.57
2016-05-21T08:35:41.928Z,1009.6
2016-05-21T08:36:41.978Z,1009.58
2016-05-21T08:37:42.027Z,1009.58
2016-05-21T08:38:42.077Z,1009.52
2016-05-21T08:39:42.141Z,1009.57
2016-05-21T08:40:42.175Z,1009.52
2016-05-21T08:41:42.241Z,1009.52
2016-05-21T08:42:42.290Z,1009.52
2016-05-21T08:43:42.324Z,1009.49
2016-05-21T08:44:42.389Z,1009.55
2016-05-21T08:45:42.423Z,1009.57
2016-05-21T08:46:42.473Z,1009.59
2016-05-21T08:47:42.538Z,1009.58
2016-05-21T08:48:42.588Z,1009.55
2016-05-21T08:49:42.637Z,1009.59
2016-05-21T08:50:42.687Z,1009.55
2016-05-21T08:51:42.736Z,1009.57
2016-05-21T08:52:42.801Z,1009.57
2016-05-21T08:53:42.851Z,1009.63
2016-05-21T08:54:42.901Z,1009.63
2016-05-21T08:55:42.950Z,1009.6
2016-05-21T08:56:42.984Z,1009.69
2016-05-21T08:57:43.049Z,1009.61
2016-05-21T08:58:43.099Z,1009.61
2016-05-21T08:59:43.148Z,1009.69
2016-05-21T09:00:43.198Z,1009.62
2016-05-21T09:01:43.247Z,1009.67
2016-05-21T09:02:43.298Z,1009.65
2016-05-21T09:03:43.347Z,1009.72
2016-05-21T09:04:43.396Z,1009.65
2016-05-21T09:05:43.446Z,1009.64
2016-05-21T09:06:43.495Z,1009.59
2016-05-21T09:07:43.545Z,1009.63
2016-05-21T09:08:43.595Z,1009.67
2016-05-21T09:09:43.645Z,1009.66
2016-05-21T09:10:43.694Z,1009.74
2016-05-21T09:11:44.103Z,1009.69
2016-05-21T09:12:43.808Z,1009.65
2016-05-21T09:13:43.842Z,1009.65
2016-05-21T09:14:43.924Z,1009.74
2016-05-21T09:15:43.957Z,1009.74
2016-05-21T09:16:44.007Z,1009.64
2016-05-21T09:17:44.094Z,1009.65
2016-05-21T09:18:44.149Z,1009.64
2016-05-21T09:19:44.219Z,1009.64
2016-05-21T09:20:44.290Z,1009.66
2016-05-21T09:21:44.361Z,1009.61
2016-05-21T09:22:44.417Z,1009.62
2016-05-21T09:23:44.475Z,1009.62
2016-05-21T09:24:44.533Z,1009.58
2016-05-21T09:25:44.605Z,1009.57
2016-05-21T09:26:44.662Z,1009.56
2016-05-21T09:27:44.714Z,1009.58
2016-05-21T09:28:44.766Z,1009.56
2016-05-21T09:29:44.819Z,1009.53
2016-05-21T09:30:44.871Z,1009.52
2016-05-21T09:31:44.923Z,1009.46
2016-05-21T09:32:44.974Z,1009.46
2016-05-21T09:33:45.024Z,1009.5
2016-05-21T09:34:45.076Z,1009.44
2016-05-21T09:35:45.126Z,1009.47
2016-05-21T09:36:45.192Z,1009.55
2016-05-21T09:37:45.227Z,1009.42
2016-05-21T09:38:45.278Z,1009.48
2016-05-21T09:39:45.342Z,1009.42
2016-05-21T09:40:45.392Z,1009.4
2016-05-21T09:41:45.427Z,1009.3
2016-05-21T09:42:45.493Z,1009.35
2016-05-21T09:43:45.542Z,1009.26
2016-05-21T09:44:45.590Z,1009.24
2016-05-21T09:45:45.640Z,1009.2
2016-05-21T09:46:45.690Z,1009.22
2016-05-21T09:47:45.740Z,1009.2
2016-05-21T09:48:45.790Z,1009.18
2016-05-21T09:49:45.853Z,1009.13
2016-05-21T09:50:45.889Z,1009.14
2016-05-21T09:51:45.938Z,1009.14
2016-05-21T09:52:45.987Z,1009.09
2016-05-21T09:53:46.036Z,1009.12
2016-05-21T09:54:46.102Z,1009.17
2016-05-21T09:55:46.136Z,1009.19
2016-05-21T09:56:46.201Z,1009.15
2016-05-21T09:57:46.250Z,1009.16
2016-05-21T09:58:46.300Z,1009.15
2016-05-21T09:59:46.350Z,1009.08
2016-05-21T10:00:46.399Z,1009.09
2016-05-21T10:01:46.449Z,1009.11
2016-05-21T10:02:46.499Z,1009.1
2016-05-21T10:03:46.549Z,1009.07
2016-05-21T10:04:46.598Z,1009.07
2016-05-21T10:05:46.679Z,1009.07
2016-05-21T10:06:46.713Z,1009.03
2016-05-21T10:07:46.746Z,1009.12
2016-05-21T10:08:46.812Z,1008.99
2016-05-21T10:09:46.862Z,1009.01
2016-05-21T10:10:46.895Z,1008.99
2016-05-21T10:11:46.960Z,1008.98
2016-05-21T10:12:47.010Z,1008.98
2016-05-21T10:13:47.059Z,1008.89
2016-05-21T10:14:47.109Z,1008.99
2016-05-21T10:15:47.158Z,1008.94
2016-05-21T10:16:47.209Z,1008.98
2016-05-21T10:17:47.273Z,1009.01
2016-05-21T10:18:47.306Z,1008.93
2016-05-21T10:19:47.356Z,1008.91
2016-05-21T10:20:47.407Z,1009.03
2016-05-21T10:21:47.456Z,1008.95
2016-05-21T10:22:47.506Z,1008.97
2016-05-21T10:23:47.571Z,1008.96
2016-05-21T10:24:47.620Z,1008.84
2016-05-21T10:25:47.669Z,1008.91
2016-05-21T10:26:47.719Z,1008.87
2016-05-21T10:27:47.769Z,1008.92
2016-05-21T10:28:47.819Z,1008.9
2016-05-21T10:29:47.868Z,1008.88
2016-05-21T10:30:47.918Z,1008.84
2016-05-21T10:31:47.983Z,1008.86
2016-05-21T10:32:48.017Z,1008.8
2016-05-21T10:33:48.082Z,1008.89
2016-05-21T10:34:48.132Z,1008.86
2016-05-21T10:35:48.166Z,1008.82
2016-05-21T10:36:48.216Z,1008.79
2016-05-21T10:37:48.280Z,1008.79
2016-05-21T10:38:48.330Z,1008.84
2016-05-21T10:39:48.396Z,1008.82
2016-05-21T10:40:48.429Z,1008.8
2016-05-21T10:41:48.478Z,1008.77
2016-05-21T10:42:48.528Z,1008.77
2016-05-21T10:43:48.578Z,1008.73
2016-05-21T10:44:48.643Z,1008.68
2016-05-21T10:45:48.676Z,1008.72
2016-05-21T10:46:48.742Z,1008.65
2016-05-21T10:47:48.792Z,1008.63
2016-05-21T10:48:48.842Z,1008.65
2016-05-21T10:49:48.890Z,1008.68
2016-05-21T10:50:48.940Z,1008.83
2016-05-21T10:51:48.990Z,1008.7
2016-05-21T10:52:49.040Z,1008.8
2016-05-21T10:53:49.089Z,1008.74
2016-05-21T10:54:49.139Z,1008.81
2016-05-21T10:55:49.189Z,1008.72
2016-05-21T10:56:49.239Z,1008.7
2016-05-21T10:57:49.286Z,1008.69
2016-05-21T10:58:49.337Z,1008.68
2016-05-21T10:59:49.386Z,1008.57
2016-05-21T11:00:49.452Z,1008.59
2016-05-21T11:01:49.501Z,1008.57
2016-05-21T11:02:49.551Z,1008.62
2016-05-21T11:03:49.585Z,1008.57
2016-05-21T11:04:49.649Z,1008.57
2016-05-21T11:05:49.699Z,1008.58
2016-05-21T11:06:49.765Z,1008.58
2016-05-21T11:07:49.799Z,1008.46
2016-05-21T11:08:49.848Z,1008.49
2016-05-21T11:09:49.898Z,1008.49
2016-05-21T11:10:49.947Z,1008.59
2016-05-21T11:11:50.044Z,1008.6
2016-05-21T11:12:50.062Z,1008.51
2016-05-21T11:13:50.112Z,1008.42
2016-05-21T11:14:50.162Z,1008.47
2016-05-21T11:15:50.210Z,1008.43
2016-05-21T11:16:50.260Z,1008.38
2016-05-21T11:17:50.310Z,1008.42
2016-05-21T11:18:50.375Z,1008.5
2016-05-21T11:19:50.409Z,1008.48
2016-05-21T11:20:50.474Z,1008.4
2016-05-21T11:21:50.508Z,1008.42
2016-05-21T11:22:50.558Z,1008.54
2016-05-21T11:23:50.623Z,1008.53
2016-05-21T11:24:50.672Z,1008.53
2016-05-21T11:25:50.706Z,1008.53
2016-05-21T11:26:50.771Z,1008.53
2016-05-21T11:27:50.822Z,1008.54
2016-05-21T11:28:50.870Z,1008.57
2016-05-21T11:29:50.920Z,1008.48
2016-05-21T11:30:50.969Z,1008.47
2016-05-21T11:31:51.019Z,1008.47
2016-05-21T11:32:51.085Z,1008.43
2016-05-21T11:33:51.119Z,1008.37
2016-05-21T11:34:51.168Z,1008.4
2016-05-21T11:35:51.233Z,1008.36
2016-05-21T11:36:51.267Z,1008.4
2016-05-21T11:37:51.333Z,1008.33
2016-05-21T11:38:51.382Z,1008.32
2016-05-21T11:39:51.432Z,1008.34
2016-05-21T11:40:51.481Z,1008.29
2016-05-21T11:41:51.718Z,1008.21
2016-05-21T11:42:51.579Z,1008.22
2016-05-21T11:43:51.630Z,1008.26
2016-05-21T11:44:51.679Z,1008.26
2016-05-21T11:45:51.729Z,1008.27
2016-05-21T11:46:51.794Z,1008.43
2016-05-21T11:47:51.844Z,1008.43
2016-05-21T11:48:51.893Z,1008.42
2016-05-21T11:49:51.943Z,1008.33
2016-05-21T11:50:51.992Z,1008.34
2016-05-21T11:51:52.042Z,1008.39
2016-05-21T11:52:52.092Z,1008.42
2016-05-21T11:53:52.141Z,1008.31
2016-05-21T11:54:52.190Z,1008.34
2016-05-21T11:55:52.240Z,1008.31
2016-05-21T11:56:52.290Z,1008.27
2016-05-21T11:57:52.355Z,1008.31
2016-05-21T11:58:52.405Z,1008.3
2016-05-21T11:59:52.438Z,1008.3
2016-05-21T12:00:52.488Z,1008.36
2016-05-21T12:01:52.552Z,1008.38
2016-05-21T12:02:52.603Z,1008.39
2016-05-21T12:03:52.653Z,1008.32
2016-05-21T12:04:52.702Z,1008.35
2016-05-21T12:05:52.751Z,1008.38
2016-05-21T12:06:52.801Z,1008.38
2016-05-21T12:07:52.850Z,1008.27
2016-05-21T12:08:52.900Z,1008.29